SVA826 OEJN-WIII
Flight info
| Callsign | SVA826 |
|---|---|
| Flight time | N/A |
| Altitude | 31000 |
| Route | EGREP T532 KODIS Y214 RAPMA DCT DEGNO DCT DAPOL L692 GISKA N569 UMILA L883 TAVKO/N0503F330 L883 REXOD N563 SADRI/N0497F350 N563 ISVUR A585 PLB G461 BIDAK |
| Aircraft | B77W/H-SDE1E2E3FGHIJ2J3J4J5M1RWXY/LB1D1 |
Departure
| Time | 2026-05-04 10:04 |
|---|---|
| Airport | King Abdulaziz International Airport (OEJN) |
Arrival
| Time | N/A |
|---|---|
| Airport | Soekarno-Hatta International Airport (WIII) |
| Time | Latitude | Longitude | Altitude | Speed | Heading |
|---|---|---|---|---|---|
| 2026-05-04 09:38 | 21.67137 | 39.16650 | 44 ft | 0 kts | 183° |
| 2026-05-04 09:51 | 21.67227 | 39.16705 | 40 ft | 4 kts | 277° |
| 2026-05-04 09:51 | 21.67226 | 39.16716 | 41 ft | 2 kts | 274° |
| 2026-05-04 09:51 | 21.67225 | 39.16716 | 41 ft | 0 kts | 274° |
| 2026-05-04 09:53 | 21.67226 | 39.16716 | 44 ft | 0 kts | 275° |
| 2026-05-04 09:54 | 21.67226 | 39.16708 | 44 ft | 2 kts | 275° |
| 2026-05-04 09:54 | 21.67228 | 39.16686 | 44 ft | 3 kts | 275° |
| 2026-05-04 09:54 | 21.67232 | 39.16633 | 43 ft | 10 kts | 275° |
| 2026-05-04 09:54 | 21.67251 | 39.16560 | 42 ft | 10 kts | 296° |
| 2026-05-04 09:55 | 21.67303 | 39.16510 | 42 ft | 10 kts | 333° |
| 2026-05-04 09:55 | 21.67368 | 39.16482 | 41 ft | 10 kts | 344° |
| 2026-05-04 09:55 | 21.67436 | 39.16458 | 41 ft | 10 kts | 340° |
| 2026-05-04 09:55 | 21.67503 | 39.16431 | 41 ft | 10 kts | 340° |
| 2026-05-04 09:56 | 21.67561 | 39.16392 | 41 ft | 10 kts | 288° |
| 2026-05-04 09:56 | 21.67549 | 39.16314 | 40 ft | 11 kts | 250° |
| 2026-05-04 09:56 | 21.67524 | 39.16238 | 39 ft | 11 kts | 250° |
| 2026-05-04 09:56 | 21.67487 | 39.16169 | 39 ft | 11 kts | 218° |
| 2026-05-04 09:57 | 21.67413 | 39.16173 | 39 ft | 11 kts | 158° |
| 2026-05-04 09:57 | 21.67339 | 39.16205 | 39 ft | 12 kts | 159° |
| 2026-05-04 09:57 | 21.67245 | 39.16243 | 40 ft | 15 kts | 159° |
| 2026-05-04 09:57 | 21.67147 | 39.16283 | 40 ft | 15 kts | 159° |
| 2026-05-04 09:58 | 21.67049 | 39.16323 | 40 ft | 15 kts | 159° |
| 2026-05-04 09:58 | 21.66951 | 39.16363 | 41 ft | 15 kts | 159° |
| 2026-05-04 09:58 | 21.66852 | 39.16402 | 41 ft | 15 kts | 160° |
| 2026-05-04 10:00 | 21.66206 | 39.16640 | 41 ft | 12 kts | 200° |
| 2026-05-04 10:00 | 21.66162 | 39.16566 | 40 ft | 12 kts | 255° |
| 2026-05-04 10:02 | 21.66206 | 39.16446 | 39 ft | 1 kts | 340° |
| 2026-05-04 10:04 | 21.72007 | 39.14063 | 1333 ft | 191 kts | 339° |
| 2026-05-04 10:04 | 21.73258 | 39.13611 | 1908 ft | 183 kts | 339° |
| 2026-05-04 10:04 | 21.74469 | 39.13153 | 2338 ft | 187 kts | 338° |
| 2026-05-04 10:04 | 21.75692 | 39.12676 | 2757 ft | 186 kts | 339° |
| 2026-05-04 10:05 | 21.76894 | 39.12209 | 3217 ft | 183 kts | 339° |
| 2026-05-04 10:05 | 21.78143 | 39.11723 | 3319 ft | 198 kts | 340° |
| 2026-05-04 10:05 | 21.79468 | 39.11206 | 3512 ft | 208 kts | 340° |
| 2026-05-04 10:05 | 21.80886 | 39.10648 | 3605 ft | 224 kts | 340° |
| 2026-05-04 10:06 | 21.82387 | 39.10060 | 3807 ft | 237 kts | 340° |
| 2026-05-04 10:06 | 21.83962 | 39.09442 | 4104 ft | 249 kts | 340° |
| 2026-05-04 10:06 | 21.85637 | 39.08782 | 4391 ft | 258 kts | 340° |
| 2026-05-04 10:08 | 21.93942 | 39.13329 | 7257 ft | 259 kts | 50° |
| 2026-05-04 10:08 | 21.95115 | 39.14869 | 7533 ft | 269 kts | 50° |
| 2026-05-04 10:08 | 21.96300 | 39.16430 | 8058 ft | 270 kts | 50° |
| 2026-05-04 10:08 | 21.97506 | 39.18022 | 8497 ft | 276 kts | 50° |
| 2026-05-04 10:09 | 21.98724 | 39.19634 | 8964 ft | 279 kts | 51° |
| 2026-05-04 10:09 | 21.99960 | 39.21272 | 9393 ft | 284 kts | 51° |
| 2026-05-04 10:09 | 22.01220 | 39.22944 | 9823 ft | 291 kts | 51° |
| 2026-05-04 10:09 | 22.02513 | 39.24662 | 10158 ft | 300 kts | 51° |
| 2026-05-04 10:10 | 22.03847 | 39.26435 | 10306 ft | 317 kts | 51° |
| 2026-05-04 10:10 | 22.05293 | 39.28360 | 10449 ft | 336 kts | 51° |
| 2026-05-04 10:10 | 22.06783 | 39.30344 | 10607 ft | 354 kts | 51° |
| 2026-05-04 10:10 | 22.08376 | 39.32467 | 10725 ft | 372 kts | 51° |
| 2026-05-04 10:11 | 22.10027 | 39.34667 | 11045 ft | 382 kts | 51° |
| 2026-05-04 10:11 | 22.11711 | 39.36911 | 11589 ft | 387 kts | 52° |
| 2026-05-04 10:11 | 22.13411 | 39.39176 | 12214 ft | 390 kts | 52° |
| 2026-05-04 10:11 | 22.15124 | 39.41462 | 12816 ft | 394 kts | 52° |
| 2026-05-04 10:12 | 22.16860 | 39.43779 | 13346 ft | 400 kts | 52° |
| 2026-05-04 10:12 | 22.18621 | 39.46131 | 13856 ft | 406 kts | 52° |
| 2026-05-04 10:12 | 22.20408 | 39.48520 | 14309 ft | 412 kts | 52° |
| 2026-05-04 10:12 | 22.22218 | 39.50941 | 14879 ft | 415 kts | 52° |
| 2026-05-04 10:13 | 22.24040 | 39.53375 | 15435 ft | 418 kts | 51° |
| 2026-05-04 10:13 | 22.25873 | 39.55823 | 16013 ft | 422 kts | 51° |
| 2026-05-04 10:13 | 22.27703 | 39.58271 | 16526 ft | 426 kts | 51° |
| 2026-05-04 10:13 | 22.29567 | 39.60769 | 17056 ft | 430 kts | 51° |
| 2026-05-04 10:14 | 22.31454 | 39.63298 | 17595 ft | 434 kts | 51° |
| 2026-05-04 10:14 | 22.33362 | 39.65854 | 18037 ft | 440 kts | 51° |
| 2026-05-04 10:16 | 22.47355 | 39.84363 | 21220 ft | 464 kts | 43° |
| 2026-05-04 10:16 | 22.49742 | 39.86732 | 21655 ft | 467 kts | 39° |
| 2026-05-04 10:16 | 22.52171 | 39.89020 | 22044 ft | 470 kts | 39° |
| 2026-05-04 10:16 | 22.54651 | 39.91340 | 22564 ft | 472 kts | 39° |
| 2026-05-04 10:17 | 22.57144 | 39.93682 | 23011 ft | 475 kts | 39° |
| 2026-05-04 10:17 | 22.59642 | 39.96043 | 23448 ft | 478 kts | 39° |
| 2026-05-04 10:19 | 22.77531 | 40.13147 | 25599 ft | 502 kts | 39° |
| 2026-05-04 10:19 | 22.80157 | 40.15666 | 25885 ft | 506 kts | 39° |
| 2026-05-04 10:19 | 22.82796 | 40.18198 | 26162 ft | 509 kts | 39° |
| 2026-05-04 10:19 | 22.85455 | 40.20750 | 26431 ft | 512 kts | 39° |
| 2026-05-04 10:20 | 22.88132 | 40.23322 | 26711 ft | 515 kts | 39° |
| 2026-05-04 10:20 | 22.90820 | 40.25905 | 26987 ft | 518 kts | 39° |
| 2026-05-04 10:20 | 22.93522 | 40.28504 | 27251 ft | 520 kts | 39° |
| 2026-05-04 10:20 | 22.96236 | 40.31115 | 27475 ft | 524 kts | 39° |
| 2026-05-04 10:21 | 22.98970 | 40.33747 | 27703 ft | 527 kts | 39° |
| 2026-05-04 10:21 | 23.01719 | 40.36395 | 27963 ft | 529 kts | 39° |
| 2026-05-04 10:21 | 23.04484 | 40.39061 | 28198 ft | 532 kts | 39° |
| 2026-05-04 10:21 | 23.07260 | 40.41737 | 28433 ft | 534 kts | 39° |
| 2026-05-04 10:22 | 23.12843 | 40.47128 | 28850 ft | 540 kts | 39° |
| 2026-05-04 10:22 | 23.15621 | 40.49812 | 29036 ft | 542 kts | 39° |
| 2026-05-04 10:22 | 23.18448 | 40.52545 | 29229 ft | 544 kts | 39° |
| 2026-05-04 10:23 | 23.21280 | 40.55285 | 29461 ft | 546 kts | 39° |
| 2026-05-04 10:23 | 23.24073 | 40.58088 | 29745 ft | 547 kts | 43° |
| 2026-05-04 10:25 | 23.35515 | 40.83695 | 31148 ft | 555 kts | 70° |
| 2026-05-04 10:25 | 23.38188 | 40.91534 | 31169 ft | 551 kts | 69° |
| 2026-05-04 10:26 | 23.40890 | 40.99330 | 31175 ft | 549 kts | 69° |
| 2026-05-04 10:26 | 23.43585 | 41.07105 | 31193 ft | 549 kts | 69° |
| 2026-05-04 10:27 | 23.46275 | 41.14897 | 31187 ft | 549 kts | 69° |
| 2026-05-04 10:27 | 23.48961 | 41.22700 | 31188 ft | 550 kts | 69° |
| 2026-05-04 10:28 | 23.51643 | 41.30512 | 31185 ft | 551 kts | 69° |
| 2026-05-04 10:28 | 23.54311 | 41.38293 | 31177 ft | 551 kts | 69° |
| 2026-05-04 10:29 | 23.56994 | 41.46132 | 31178 ft | 551 kts | 69° |
| 2026-05-04 10:29 | 23.59672 | 41.53973 | 31175 ft | 551 kts | 69° |
| 2026-05-04 10:30 | 23.62345 | 41.61812 | 31167 ft | 551 kts | 69° |
| 2026-05-04 10:30 | 23.65009 | 41.69641 | 31169 ft | 551 kts | 69° |
| 2026-05-04 10:31 | 23.67663 | 41.77477 | 31161 ft | 550 kts | 70° |
| 2026-05-04 10:32 | 23.76426 | 42.05036 | 31164 ft | 550 kts | 69° |
| 2026-05-04 10:33 | 23.79129 | 42.12846 | 31165 ft | 549 kts | 69° |
| 2026-05-04 10:33 | 23.81829 | 42.20661 | 31160 ft | 549 kts | 69° |
| 2026-05-04 10:34 | 23.84497 | 42.28482 | 31158 ft | 549 kts | 69° |
| 2026-05-04 10:34 | 23.87146 | 42.36297 | 31160 ft | 549 kts | 69° |
| 2026-05-04 10:35 | 23.89795 | 42.44124 | 31195 ft | 550 kts | 69° |
| 2026-05-04 10:35 | 23.92459 | 42.52001 | 31162 ft | 553 kts | 69° |
| 2026-05-04 10:36 | 23.95122 | 42.59891 | 31157 ft | 554 kts | 69° |
| 2026-05-04 10:36 | 23.97771 | 42.67756 | 31159 ft | 555 kts | 69° |
| 2026-05-04 10:37 | 24.00436 | 42.75685 | 31154 ft | 555 kts | 69° |
| 2026-05-04 10:37 | 24.02999 | 42.83657 | 31137 ft | 554 kts | 76° |
| 2026-05-04 10:39 | 23.99661 | 43.07892 | 31139 ft | 540 kts | 110° |
| 2026-05-04 10:39 | 23.98550 | 43.11815 | 31137 ft | 540 kts | 110° |
| 2026-05-04 10:40 | 23.96386 | 43.19672 | 31141 ft | 540 kts | 110° |
| 2026-05-04 10:40 | 23.94268 | 43.27485 | 31143 ft | 539 kts | 110° |
| 2026-05-04 10:41 | 23.92843 | 43.32736 | 31146 ft | 538 kts | 110° |
| 2026-05-04 10:42 | 23.88113 | 43.50037 | 31134 ft | 536 kts | 110° |
| 2026-05-04 10:42 | 23.85971 | 43.57838 | 31130 ft | 535 kts | 110° |
| 2026-05-04 10:43 | 23.83829 | 43.65625 | 31122 ft | 535 kts | 110° |
| 2026-05-04 10:44 | 23.76974 | 43.92960 | 31090 ft | 538 kts | 97° |
| 2026-05-04 10:45 | 23.76674 | 43.97032 | 31101 ft | 538 kts | 96° |
| 2026-05-04 10:45 | 23.76147 | 44.05194 | 31086 ft | 539 kts | 96° |
| 2026-05-04 10:46 | 23.75583 | 44.13352 | 31083 ft | 539 kts | 97° |
| 2026-05-04 10:46 | 23.74973 | 44.21502 | 31087 ft | 539 kts | 97° |
| 2026-05-04 10:47 | 23.74348 | 44.29652 | 31081 ft | 539 kts | 97° |
| 2026-05-04 10:47 | 23.73722 | 44.37810 | 31087 ft | 539 kts | 97° |
| 2026-05-04 10:49 | 23.71193 | 44.70346 | 31086 ft | 538 kts | 97° |
| 2026-05-04 10:50 | 23.70550 | 44.78478 | 31087 ft | 537 kts | 97° |
| 2026-05-04 10:52 | 23.67938 | 45.10878 | 31076 ft | 536 kts | 97° |
| 2026-05-04 10:52 | 23.67274 | 45.18985 | 31067 ft | 537 kts | 97° |
| 2026-05-04 10:54 | 23.64587 | 45.51383 | 31047 ft | 537 kts | 97° |
| 2026-05-04 10:56 | 23.61838 | 45.83778 | 31044 ft | 535 kts | 97° |
| 2026-05-04 10:57 | 23.61144 | 45.91853 | 31035 ft | 535 kts | 97° |
| 2026-05-04 10:57 | 23.60448 | 45.99892 | 31035 ft | 535 kts | 97° |
| 2026-05-04 10:58 | 23.59744 | 46.07975 | 31041 ft | 536 kts | 97° |
| 2026-05-04 10:58 | 23.59035 | 46.16069 | 31037 ft | 536 kts | 97° |
| 2026-05-04 10:59 | 23.58323 | 46.24160 | 31033 ft | 536 kts | 97° |
| 2026-05-04 10:59 | 23.57603 | 46.32252 | 31040 ft | 536 kts | 97° |
| 2026-05-04 11:00 | 23.56883 | 46.40336 | 31032 ft | 536 kts | 97° |
| 2026-05-04 11:02 | 23.53936 | 46.72630 | 31032 ft | 536 kts | 97° |
| 2026-05-04 11:05 | 23.48204 | 47.33140 | 30978 ft | 536 kts | 97° |
| 2026-05-04 11:06 | 23.47422 | 47.41218 | 30982 ft | 535 kts | 97° |
| 2026-05-04 11:06 | 23.46636 | 47.49285 | 30972 ft | 535 kts | 97° |
| 2026-05-04 11:12 | 23.37581 | 48.33451 | 30911 ft | 531 kts | 111° |
| 2026-05-04 11:12 | 23.36222 | 48.37182 | 30929 ft | 529 kts | 117° |
| 2026-05-04 11:12 | 23.32564 | 48.44006 | 30925 ft | 525 kts | 126° |
| 2026-05-04 11:13 | 23.28557 | 48.50655 | 30920 ft | 525 kts | 126° |
| 2026-05-04 11:13 | 23.24584 | 48.57339 | 30902 ft | 526 kts | 125° |
| 2026-05-04 11:14 | 23.20641 | 48.64057 | 30916 ft | 527 kts | 125° |
| 2026-05-04 11:16 | 23.04872 | 48.90873 | 30908 ft | 525 kts | 125° |
| 2026-05-04 11:16 | 23.01137 | 48.97697 | 30887 ft | 528 kts | 117° |
| 2026-05-04 11:17 | 22.98606 | 49.05183 | 30906 ft | 530 kts | 106° |
| 2026-05-04 11:19 | 22.93231 | 49.36453 | 30896 ft | 524 kts | 102° |
| 2026-05-04 11:19 | 22.91866 | 49.44212 | 30897 ft | 524 kts | 103° |
| 2026-05-04 11:20 | 22.90498 | 49.51969 | 30895 ft | 524 kts | 103° |
| 2026-05-04 11:20 | 22.89136 | 49.59693 | 30889 ft | 525 kts | 102° |
| 2026-05-04 11:22 | 22.83838 | 49.89529 | 30890 ft | 526 kts | 103° |